Aviation Digital Data Service (ADDS)

Output produced by METARs form (0355 UTC 26 April 2019)
found at http://www.aviationweather.gov/metar/data/
 
Forecast for: AMD
Text: TAF AMD RKTN 260100Z 2601/2706 30006KT 9000 BKN015 TN05/2621Z TX20/2706Z
Forecast period: 0100 to 1100 UTC 26 April 2019
Forecast type: FROM: standard forecast or significant change
Winds: from the WNW (300 degrees) at 7 MPH (6 knots; 3.1 m/s)
Visibility: 6 miles (9 km)
Ceiling: 1500 feet AGL
Clouds: broken clouds at 1500 feet AGL
Weather: no significant weather forecast for this period
Text: BECMG 2611/2612 BKN030
Forecast period: 1100 to 1700 UTC 26 April 2019
Forecast type: BECOMING: Conditions expected to become as follows by 1200 UTC 26 April 2019
Winds: from the WNW (300 degrees) at 7 MPH (6 knots; 3.1 m/s)
Visibility: 6 miles (9 km)
Ceiling: 3000 feet AGL
Clouds: broken clouds at 3000 feet AGL
Weather: no significant weather forecast for this period
Text: BECMG 2617/2618 9999 SCT030
Forecast period: 1700 UTC 26 April 2019 to 0600 UTC 27 April 2019
Forecast type: BECOMING: Conditions expected to become as follows by 1800 UTC 26 April 2019
Winds: from the WNW (300 degrees) at 7 MPH (6 knots; 3.1 m/s)
Visibility: 6 or more miles 10+ km)
Ceiling: at least 12,000 feet AGL
Clouds: scattered clouds at 3000 feet AGL
Weather: no significant weather forecast for this period